Time;durP1;ratioP1;P1;durP2;ratioP2;P2;SDS_P1;SDS_P2;PMS_P1;PMS_P2;Temp;Humidity;BMP_temperature;BMP_pressure;BME280_temperature;BME280_humidity;BME280_pressure;Samples;Min_cycle;Max_cycle;Signal;HPM_P1;HPM_P2
2022/05/19 00:00:07;;;;;;;5.20;2.80;;;;;;;;;;759693;183;920231;-64
2022/05/19 00:02:33;;;;;;;5.10;3.07;;;;;;;;;;761690;183;915400;-64
2022/05/19 00:04:58;;;;;;;5.17;3.27;;;;;;;;;;752616;184;916229;-64
2022/05/19 00:07:24;;;;;;;5.70;3.17;;;;;;;;;;739829;188;915607;-64
2022/05/19 00:09:52;;;;;;;4.47;2.37;;;;;;;;;;741855;188;854389;-64
2022/05/19 00:12:16;;;;;;;5.20;2.85;;;;;;;;;;746016;188;919413;-64
2022/05/19 00:14:42;;;;;;;4.90;3.00;;;;;;;;;;746612;186;989199;-64
2022/05/19 00:17:08;;;;;;;4.83;2.97;;;;;;;;;;743250;187;920134;-64
2022/05/19 00:19:33;;;;;;;4.63;2.47;;;;;;;;;;745913;188;918686;-63
2022/05/19 00:21:59;;;;;;;4.30;2.70;;;;;;;;;;742267;188;919871;-65
2022/05/19 00:24:26;;;;;;;5.65;2.47;;;;;;;;;;747202;187;919309;-64
2022/05/19 00:26:51;;;;;;;5.18;2.97;;;;;;;;;;751401;186;919023;-63
2022/05/19 00:29:17;;;;;;;3.50;2.40;;;;;;;;;;754176;185;919197;-64
2022/05/19 00:31:43;;;;;;;5.30;3.40;;;;;;;;;;757120;184;919363;-64
2022/05/19 00:34:09;;;;;;;5.10;2.90;;;;;;;;;;751935;185;919425;-64
2022/05/19 00:36:35;;;;;;;5.40;3.07;;;;;;;;;;758311;184;918934;-64
2022/05/19 00:39:00;;;;;;;5.57;3.40;;;;;;;;;;766871;181;919296;-64
2022/05/19 00:41:26;;;;;;;4.93;3.20;;;;;;;;;;761893;183;1020908;-64
2022/05/19 00:43:58;;;;;;;4.50;2.40;;;;;;;;;;764335;184;919398;-64
2022/05/19 00:46:23;;;;;;;6.10;3.20;;;;;;;;;;759058;184;920071;-64
2022/05/19 00:48:50;;;;;;;3.93;2.67;;;;;;;;;;756844;184;919588;-63
2022/05/19 00:51:16;;;;;;;4.27;2.60;;;;;;;;;;746674;186;2147915;-64
2022/05/19 00:53:43;;;;;;;4.57;3.08;;;;;;;;;;762570;183;919595;-65
2022/05/19 00:56:08;;;;;;;5.63;2.90;;;;;;;;;;758450;183;920593;-64
2022/05/19 00:58:36;;;;;;;5.35;3.10;;;;;;;;;;760821;184;918356;-64
2022/05/19 01:01:01;;;;;;;6.60;3.03;;;;;;;;;;765965;184;919411;-65
2022/05/19 01:03:27;;;;;;;2.97;2.20;;;;;;;;;;761615;184;918703;-64
2022/05/19 01:05:53;;;;;;;5.70;2.90;;;;;;;;;;763228;184;924087;-64
2022/05/19 01:08:35;;;;;;;5.55;3.28;;;;;;;;;;759821;184;1021444;-62
2022/05/19 01:11:02;;;;;;;3.95;2.60;;;;;;;;;;753254;185;929769;-62
2022/05/19 01:13:30;;;;;;;4.13;2.57;;;;;;;;;;759294;183;948781;-63
2022/05/19 01:15:54;;;;;;;4.33;3.20;;;;;;;;;;761648;183;919331;-64
2022/05/19 01:18:20;;;;;;;4.40;2.30;;;;;;;;;;760339;183;919245;-64
2022/05/19 01:20:46;;;;;;;3.97;2.43;;;;;;;;;;766182;183;918738;-64
2022/05/19 01:23:12;;;;;;;4.07;3.00;;;;;;;;;;757307;183;919350;-64
2022/05/19 01:25:40;;;;;;;3.87;2.40;;;;;;;;;;748785;185;919254;-64
2022/05/19 01:28:06;;;;;;;5.60;2.60;;;;;;;;;;757069;184;919381;-64
2022/05/19 01:30:32;;;;;;;4.97;2.77;;;;;;;;;;763044;184;926915;-64
2022/05/19 01:32:58;;;;;;;4.30;3.03;;;;;;;;;;761341;184;919519;-64
2022/05/19 01:35:24;;;;;;;6.00;3.30;;;;;;;;;;759051;184;1022908;-63
2022/05/19 01:37:50;;;;;;;5.13;3.13;;;;;;;;;;762677;184;919834;-63
2022/05/19 01:40:21;;;;;;;4.73;3.33;;;;;;;;;;752479;186;919737;-64
2022/05/19 01:42:48;;;;;;;3.93;2.73;;;;;;;;;;749870;183;919207;-62
2022/05/19 01:45:14;;;;;;;7.80;3.57;;;;;;;;;;769049;183;921434;-65
2022/05/19 01:47:44;;;;;;;5.43;3.10;;;;;;;;;;763312;183;920647;-64
2022/05/19 01:50:10;;;;;;;11.00;2.90;;;;;;;;;;760014;183;918733;-64
2022/05/19 01:52:37;;;;;;;4.53;3.10;;;;;;;;;;763074;183;918178;-64
2022/05/19 01:55:03;;;;;;;3.60;2.80;;;;;;;;;;767278;183;919351;-64
2022/05/19 01:57:29;;;;;;;4.67;3.03;;;;;;;;;;747386;185;914977;-65
2022/05/19 02:00:01;;;;;;;5.10;3.10;;;;;;;;;;750256;185;912579;-65
2022/05/19 02:02:28;;;;;;;5.13;2.57;;;;;;;;;;753135;183;914148;-64
2022/05/19 02:05:00;;;;;;;6.83;2.80;;;;;;;;;;769638;183;623580;-65
2022/05/19 02:07:26;;;;;;;4.10;2.93;;;;;;;;;;766464;183;621243;-64
2022/05/19 02:09:53;;;;;;;5.97;3.17;;;;;;;;;;754809;184;918808;-64
2022/05/19 02:12:18;;;;;;;6.13;3.10;;;;;;;;;;758489;186;846086;-64
2022/05/19 02:14:44;;;;;;;4.70;2.30;;;;;;;;;;759690;183;934322;-63
2022/05/19 02:17:10;;;;;;;4.60;2.73;;;;;;;;;;758573;184;919535;-63
2022/05/19 02:19:37;;;;;;;4.43;2.40;;;;;;;;;;753465;185;919802;-65
2022/05/19 02:22:02;;;;;;;3.77;2.23;;;;;;;;;;757757;186;920009;-64
2022/05/19 02:24:28;;;;;;;3.97;2.57;;;;;;;;;;753522;186;919794;-63
2022/05/19 02:26:54;;;;;;;4.53;2.50;;;;;;;;;;750931;186;1022465;-64
2022/05/19 02:29:22;;;;;;;3.83;2.43;;;;;;;;;;763480;183;918569;-64
2022/05/19 02:31:46;;;;;;;4.57;3.20;;;;;;;;;;759743;183;919118;-64
2022/05/19 02:34:12;;;;;;;5.13;2.90;;;;;;;;;;757110;184;919057;-64
2022/05/19 02:36:37;;;;;;;5.03;2.40;;;;;;;;;;763366;184;919368;-64
2022/05/19 02:39:03;;;;;;;4.50;2.70;;;;;;;;;;749152;185;919502;-64
2022/05/19 02:41:29;;;;;;;5.37;3.77;;;;;;;;;;756426;184;919093;-63
2022/05/19 02:43:55;;;;;;;4.18;2.90;;;;;;;;;;758653;184;919549;-63
2022/05/19 02:46:21;;;;;;;4.27;2.60;;;;;;;;;;750895;183;919558;-62
2022/05/19 02:48:47;;;;;;;5.33;4.07;;;;;;;;;;739474;186;1044870;-64
2022/05/19 02:51:12;;;;;;;6.87;2.70;;;;;;;;;;755479;184;919213;-64
2022/05/19 02:53:38;;;;;;;4.20;2.80;;;;;;;;;;755564;184;919506;-64
2022/05/19 02:56:04;;;;;;;5.23;3.17;;;;;;;;;;756164;184;1021514;-64
2022/05/19 02:58:30;;;;;;;4.07;2.90;;;;;;;;;;755820;184;919576;-63
2022/05/19 03:00:56;;;;;;;5.13;3.10;;;;;;;;;;756482;185;918543;-64
2022/05/19 03:03:22;;;;;;;6.22;3.33;;;;;;;;;;759211;184;919642;-64
2022/05/19 03:05:48;;;;;;;4.60;2.80;;;;;;;;;;769033;182;919983;-64
2022/05/19 03:08:13;;;;;;;3.70;2.77;;;;;;;;;;746955;186;919363;-63
2022/05/19 03:10:39;;;;;;;4.13;2.77;;;;;;;;;;767041;180;919201;-64
2022/05/19 03:13:05;;;;;;;3.63;2.50;;;;;;;;;;756760;183;919407;-63
2022/05/19 03:15:31;;;;;;;5.55;2.83;;;;;;;;;;754162;183;919665;-64
2022/05/19 03:17:57;;;;;;;5.10;3.20;;;;;;;;;;760430;183;918579;-64
2022/05/19 03:20:22;;;;;;;5.20;2.70;;;;;;;;;;762483;183;919938;-64
2022/05/19 03:22:48;;;;;;;5.33;3.50;;;;;;;;;;761590;183;919515;-64
2022/05/19 03:25:14;;;;;;;5.30;2.97;;;;;;;;;;759145;183;918421;-63
2022/05/19 03:27:40;;;;;;;4.63;2.73;;;;;;;;;;756929;184;921282;-63
2022/05/19 03:30:07;;;;;;;9.77;2.80;;;;;;;;;;757533;183;964258;-63
2022/05/19 03:32:33;;;;;;;8.80;3.43;;;;;;;;;;764623;183;919629;-64
2022/05/19 03:34:58;;;;;;;5.23;3.03;;;;;;;;;;753133;183;919171;-64
2022/05/19 03:37:24;;;;;;;4.60;3.00;;;;;;;;;;757150;183;919697;-64
2022/05/19 03:39:51;;;;;;;6.47;3.30;;;;;;;;;;757997;183;1021321;-62
2022/05/19 03:42:16;;;;;;;3.63;2.83;;;;;;;;;;764773;183;937249;-63
2022/05/19 03:44:42;;;;;;;4.87;3.57;;;;;;;;;;748181;185;917472;-64
2022/05/19 03:47:09;;;;;;;6.50;4.10;;;;;;;;;;758682;184;614732;-65
2022/05/19 03:49:35;;;;;;;4.80;3.00;;;;;;;;;;764161;184;636735;-63
2022/05/19 03:52:01;;;;;;;6.60;3.80;;;;;;;;;;752840;184;920999;-62
2022/05/19 03:54:27;;;;;;;6.03;3.40;;;;;;;;;;755706;183;920163;-63
2022/05/19 03:56:52;;;;;;;5.43;3.60;;;;;;;;;;759579;183;918957;-67
2022/05/19 03:59:19;;;;;;;4.90;3.20;;;;;;;;;;754759;184;920369;-64
2022/05/19 04:01:44;;;;;;;5.23;3.90;;;;;;;;;;757614;183;918300;-65
2022/05/19 04:04:10;;;;;;;7.07;3.78;;;;;;;;;;756227;183;923485;-64
2022/05/19 04:06:36;;;;;;;6.07;3.53;;;;;;;;;;764933;183;919600;-63
2022/05/19 04:09:03;;;;;;;6.27;4.13;;;;;;;;;;758545;184;927403;-64
2022/05/19 04:11:27;;;;;;;7.43;4.17;;;;;;;;;;755305;183;1022037;-66
2022/05/19 04:13:53;;;;;;;6.27;4.10;;;;;;;;;;765155;183;919863;-65
2022/05/19 04:16:19;;;;;;;8.38;4.50;;;;;;;;;;758701;183;919644;-65
2022/05/19 04:18:45;;;;;;;9.70;5.25;;;;;;;;;;758113;183;1021255;-65
2022/05/19 04:21:11;;;;;;;7.87;4.70;;;;;;;;;;763372;183;919355;-64
2022/05/19 04:23:37;;;;;;;9.07;5.30;;;;;;;;;;761307;183;919789;-65
2022/05/19 04:26:02;;;;;;;16.40;6.37;;;;;;;;;;761580;183;621102;-65
2022/05/19 04:28:28;;;;;;;11.53;5.20;;;;;;;;;;767357;183;619142;-64
2022/05/19 04:30:55;;;;;;;7.77;5.00;;;;;;;;;;763886;184;920952;-64
2022/05/19 04:33:20;;;;;;;11.53;5.50;;;;;;;;;;757644;183;632864;-64
2022/05/19 04:35:46;;;;;;;10.27;6.70;;;;;;;;;;759134;183;918646;-64
2022/05/19 04:38:12;;;;;;;9.97;6.67;;;;;;;;;;764256;184;919652;-65
2022/05/19 04:40:38;;;;;;;10.90;6.50;;;;;;;;;;757826;184;918526;-64
2022/05/19 04:43:03;;;;;;;17.05;7.22;;;;;;;;;;753382;183;918465;-65
2022/05/19 04:45:29;;;;;;;13.87;7.53;;;;;;;;;;763809;184;920203;-65
2022/05/19 04:47:55;;;;;;;11.83;6.70;;;;;;;;;;754280;185;919247;-63
2022/05/19 04:50:22;;;;;;;17.30;9.63;;;;;;;;;;758863;183;919201;-64
2022/05/19 04:52:48;;;;;;;18.53;11.83;;;;;;;;;;761680;184;921533;-61
2022/05/19 04:55:15;;;;;;;17.80;11.83;;;;;;;;;;756855;183;919646;-63
2022/05/19 04:57:42;;;;;;;16.60;9.70;;;;;;;;;;759441;184;919637;-61
2022/05/19 05:00:10;;;;;;;14.50;9.77;;;;;;;;;;757191;184;921487;-63
2022/05/19 05:02:37;;;;;;;17.60;11.23;;;;;;;;;;762543;184;921474;-63
2022/05/19 05:05:05;;;;;;;12.50;8.63;;;;;;;;;;755095;184;919589;-64
2022/05/19 05:07:31;;;;;;;12.68;8.68;;;;;;;;;;752211;186;919477;-64
2022/05/19 05:09:58;;;;;;;13.20;8.47;;;;;;;;;;754021;184;920851;-65
2022/05/19 05:12:25;;;;;;;12.37;8.87;;;;;;;;;;754960;185;921966;-63
2022/05/19 05:14:52;;;;;;;21.20;8.40;;;;;;;;;;757002;184;919007;-63
2022/05/19 05:17:17;;;;;;;11.53;7.33;;;;;;;;;;764685;183;633665;-64
2022/05/19 05:19:43;;;;;;;9.77;6.13;;;;;;;;;;759506;183;921016;-64
2022/05/19 05:22:09;;;;;;;9.17;6.00;;;;;;;;;;748678;185;919711;-64
2022/05/19 05:24:35;;;;;;;7.97;5.83;;;;;;;;;;752319;184;916666;-66
2022/05/19 05:27:03;;;;;;;8.67;5.23;;;;;;;;;;758762;184;916322;-64
2022/05/19 05:29:27;;;;;;;8.23;5.77;;;;;;;;;;764128;183;915153;-65
2022/05/19 05:31:52;;;;;;;9.65;5.97;;;;;;;;;;755889;183;915978;-63
2022/05/19 05:34:18;;;;;;;7.43;5.10;;;;;;;;;;758912;183;920706;-64
2022/05/19 05:36:44;;;;;;;6.07;4.63;;;;;;;;;;763142;183;919317;-65
2022/05/19 05:39:10;;;;;;;8.07;4.53;;;;;;;;;;756535;183;919188;-65
2022/05/19 05:41:36;;;;;;;8.60;4.73;;;;;;;;;;758070;184;919156;-65
2022/05/19 05:44:02;;;;;;;6.53;4.30;;;;;;;;;;763628;184;921061;-66
2022/05/19 05:46:27;;;;;;;8.73;4.80;;;;;;;;;;753217;185;918126;-65
2022/05/19 05:48:53;;;;;;;8.13;4.33;;;;;;;;;;752755;184;919481;-65
2022/05/19 05:51:19;;;;;;;4.80;3.33;;;;;;;;;;758453;184;1013443;-65
2022/05/19 05:53:45;;;;;;;8.23;4.63;;;;;;;;;;752454;183;916511;-66
2022/05/19 05:56:11;;;;;;;5.20;3.73;;;;;;;;;;761123;182;918494;-66
2022/05/19 05:58:37;;;;;;;5.82;3.33;;;;;;;;;;759611;184;925442;-65
2022/05/19 06:01:02;;;;;;;5.90;3.90;;;;;;;;;;757644;184;915929;-66
2022/05/19 06:03:28;;;;;;;6.70;3.60;;;;;;;;;;760545;183;919360;-67
2022/05/19 06:05:54;;;;;;;8.13;3.90;;;;;;;;;;761039;184;1021242;-66
2022/05/19 06:08:20;;;;;;;7.43;3.50;;;;;;;;;;764465;183;1021188;-67
2022/05/19 06:10:46;;;;;;;8.67;3.83;;;;;;;;;;758173;183;1038067;-67
2022/05/19 06:13:12;;;;;;;6.70;2.87;;;;;;;;;;758244;183;920323;-66
2022/05/19 06:15:38;;;;;;;6.13;3.33;;;;;;;;;;756614;183;918842;-67
2022/05/19 06:18:03;;;;;;;6.53;2.20;;;;;;;;;;752385;184;920279;-67
2022/05/19 06:20:29;;;;;;;3.58;2.30;;;;;;;;;;757724;183;918977;-67
2022/05/19 06:22:58;;;;;;;4.18;2.53;;;;;;;;;;762247;184;916098;-66
2022/05/19 06:25:22;;;;;;;4.07;2.23;;;;;;;;;;752688;184;915598;-67
2022/05/19 06:27:50;;;;;;;3.73;2.30;;;;;;;;;;733649;188;916066;-67
2022/05/19 06:30:15;;;;;;;8.70;3.00;;;;;;;;;;757493;183;1017681;-68
2022/05/19 06:32:41;;;;;;;5.00;2.43;;;;;;;;;;765600;184;920116;-68
2022/05/19 06:35:07;;;;;;;5.17;2.20;;;;;;;;;;758173;183;919395;-68
2022/05/19 06:37:33;;;;;;;4.70;2.20;;;;;;;;;;753859;185;918982;-68
2022/05/19 06:39:59;;;;;;;4.73;2.87;;;;;;;;;;762372;183;920134;-68
2022/05/19 06:42:25;;;;;;;5.90;2.30;;;;;;;;;;757382;183;918723;-68
2022/05/19 06:44:51;;;;;;;5.50;2.60;;;;;;;;;;757127;183;946621;-68
2022/05/19 06:47:17;;;;;;;4.40;2.77;;;;;;;;;;760466;183;927166;-68
2022/05/19 06:49:43;;;;;;;5.97;3.23;;;;;;;;;;758784;184;919455;-70
2022/05/19 06:52:10;;;;;;;4.33;2.37;;;;;;;;;;756218;183;918979;-69
2022/05/19 06:54:35;;;;;;;8.20;4.17;;;;;;;;;;761500;183;647156;-69
2022/05/19 06:57:01;;;;;;;4.57;2.57;;;;;;;;;;768362;183;637304;-69
2022/05/19 06:59:27;;;;;;;4.90;2.60;;;;;;;;;;760910;183;918942;-69
2022/05/19 07:01:54;;;;;;;6.13;3.00;;;;;;;;;;757127;183;919431;-70
2022/05/19 07:04:19;;;;;;;11.77;2.80;;;;;;;;;;762462;183;918862;-69
2022/05/19 07:06:45;;;;;;;4.77;2.57;;;;;;;;;;756025;183;920526;-70
2022/05/19 07:09:11;;;;;;;8.93;3.10;;;;;;;;;;756387;184;1021890;-70
2022/05/19 07:11:37;;;;;;;7.05;2.55;;;;;;;;;;757555;183;937619;-69
2022/05/19 07:14:03;;;;;;;6.10;2.60;;;;;;;;;;753931;185;1020022;-70
2022/05/19 07:16:28;;;;;;;10.97;2.70;;;;;;;;;;757385;183;919290;-69
2022/05/19 07:20:43;;;;;;;4.30;2.67;;;;;;;;;;758983;183;919371;-70
2022/05/19 07:21:22;;;;;;;7.05;2.78;;;;;;;;;;759066;183;919320;-70
2022/05/19 07:23:48;;;;;;;6.80;3.57;;;;;;;;;;756016;183;928394;-71
2022/05/19 07:26:13;;;;;;;6.60;3.20;;;;;;;;;;756984;183;919289;-70
2022/05/19 07:28:39;;;;;;;7.70;2.80;;;;;;;;;;761950;184;937035;-71
2022/05/19 07:31:05;;;;;;;4.40;2.43;;;;;;;;;;756111;183;919628;-71
2022/05/19 07:33:31;;;;;;;3.97;2.90;;;;;;;;;;758766;183;918268;-70
2022/05/19 07:35:58;;;;;;;6.68;3.30;;;;;;;;;;760166;183;920228;-69
2022/05/19 07:38:23;;;;;;;6.23;2.93;;;;;;;;;;763880;183;921462;-73
2022/05/19 07:40:54;;;;;;;5.40;3.00;;;;;;;;;;755743;184;919736;-73
2022/05/19 07:45:47;;;;;;;5.07;2.83;;;;;;;;;;761686;184;919382;-71
2022/05/19 07:48:13;;;;;;;6.60;3.33;;;;;;;;;;760095;182;925304;-73
2022/05/19 07:50:38;;;;;;;4.30;2.77;;;;;;;;;;756283;183;918234;-72
2022/05/19 07:53:06;;;;;;;6.12;2.40;;;;;;;;;;760120;183;914652;-72
2022/05/19 07:55:32;;;;;;;6.00;2.80;;;;;;;;;;766748;182;915844;-74
2022/05/19 07:57:57;;;;;;;6.00;3.07;;;;;;;;;;760700;183;918204;-74
2022/05/19 08:00:24;;;;;;;4.50;2.27;;;;;;;;;;757924;183;915833;-73
2022/05/19 08:02:50;;;;;;;4.17;2.40;;;;;;;;;;762367;183;1017021;-71
2022/05/19 08:05:16;;;;;;;5.70;2.93;;;;;;;;;;755713;183;919371;-73
2022/05/19 08:07:42;;;;;;;5.77;3.00;;;;;;;;;;758121;184;916422;-75
2022/05/19 08:17:44;;;;;;;7.20;2.90;;;;;;;;;;757268;183;918918;-72
2022/05/19 08:20:10;;;;;;;3.73;2.40;;;;;;;;;;757653;183;919961;-73
2022/05/19 08:22:36;;;;;;;6.47;2.50;;;;;;;;;;760924;184;918704;-74
2022/05/19 08:25:02;;;;;;;5.30;3.10;;;;;;;;;;757274;183;919538;-74
2022/05/19 08:27:28;;;;;;;6.23;2.67;;;;;;;;;;755683;183;918772;-78
2022/05/19 08:29:54;;;;;;;6.07;3.10;;;;;;;;;;764288;183;919818;-78
2022/05/19 08:32:20;;;;;;;7.00;2.63;;;;;;;;;;753969;184;1624704;-73
2022/05/19 08:34:45;;;;;;;8.83;2.63;;;;;;;;;;756967;183;919621;-76
2022/05/19 08:37:11;;;;;;;7.73;2.80;;;;;;;;;;764153;183;816317;-76
2022/05/19 08:39:37;;;;;;;7.53;3.27;;;;;;;;;;756381;184;937544;-77
2022/05/19 08:42:03;;;;;;;9.10;2.70;;;;;;;;;;759495;183;920609;-75
2022/05/19 08:44:33;;;;;;;6.97;2.47;;;;;;;;;;755514;184;918428;-76
2022/05/19 08:46:58;;;;;;;6.33;2.53;;;;;;;;;;757134;184;919210;-76
2022/05/19 08:49:28;;;;;;;4.33;2.47;;;;;;;;;;754561;183;919146;-76
2022/05/19 08:51:55;;;;;;;5.77;2.30;;;;;;;;;;755294;184;914667;-73
2022/05/19 08:54:20;;;;;;;4.50;2.37;;;;;;;;;;764106;183;941439;-78
2022/05/19 08:56:46;;;;;;;7.70;2.97;;;;;;;;;;761246;183;919092;-77
2022/05/19 08:59:31;;;;;;;6.00;2.50;;;;;;;;;;763653;182;820878;-70
2022/05/19 09:02:00;;;;;;;5.90;2.30;;;;;;;;;;761538;183;919628;-70
2022/05/19 09:04:30;;;;;;;6.80;2.10;;;;;;;;;;759080;183;919637;-74
2022/05/19 09:09:28;;;;;;;5.40;2.43;;;;;;;;;;763588;183;919171;-76
2022/05/19 09:11:54;;;;;;;3.43;2.07;;;;;;;;;;756313;183;918415;-76
2022/05/19 09:14:22;;;;;;;3.93;2.23;;;;;;;;;;757326;183;921318;-75
2022/05/19 09:16:48;;;;;;;4.70;2.27;;;;;;;;;;760467;184;919439;-77
2022/05/19 09:19:17;;;;;;;5.97;2.73;;;;;;;;;;758029;183;816107;-73
2022/05/19 09:21:43;;;;;;;4.13;2.53;;;;;;;;;;758553;183;919357;-73
2022/05/19 09:24:11;;;;;;;10.07;2.10;;;;;;;;;;757223;183;918901;-73
2022/05/19 09:26:36;;;;;;;6.03;2.10;;;;;;;;;;750755;183;919553;-77
2022/05/19 09:29:02;;;;;;;3.40;1.77;;;;;;;;;;751700;184;919585;-74
2022/05/19 09:31:33;;;;;;;6.40;2.40;;;;;;;;;;756956;183;919233;-77
2022/05/19 09:33:59;;;;;;;2.77;1.90;;;;;;;;;;759180;184;919418;-75
2022/05/19 09:36:26;;;;;;;3.75;2.30;;;;;;;;;;753198;184;919027;-72
2022/05/19 09:38:52;;;;;;;3.20;2.13;;;;;;;;;;753288;183;919391;-76
2022/05/19 09:41:18;;;;;;;5.30;2.43;;;;;;;;;;753511;184;920847;-74
2022/05/19 09:43:43;;;;;;;7.20;2.33;;;;;;;;;;756016;183;919552;-75
2022/05/19 09:46:09;;;;;;;5.30;2.20;;;;;;;;;;758421;183;946397;-75
2022/05/19 09:48:35;;;;;;;3.30;1.93;;;;;;;;;;760783;183;919373;-77
2022/05/19 09:51:02;;;;;;;4.63;2.70;;;;;;;;;;761379;183;919174;-69
2022/05/19 09:53:27;;;;;;;3.70;2.37;;;;;;;;;;758241;183;910822;-77
2022/05/19 09:55:54;;;;;;;3.50;1.90;;;;;;;;;;756806;184;919153;-76
2022/05/19 09:58:20;;;;;;;7.70;2.00;;;;;;;;;;761751;183;922902;-73
2022/05/19 10:00:50;;;;;;;2.80;2.03;;;;;;;;;;756527;183;918731;-74
2022/05/19 10:03:18;;;;;;;4.90;2.40;;;;;;;;;;759074;183;919631;-73
2022/05/19 10:05:46;;;;;;;4.47;2.07;;;;;;;;;;760489;183;919548;-72
2022/05/19 10:08:12;;;;;;;4.73;2.27;;;;;;;;;;763504;184;918122;-77
2022/05/19 10:10:43;;;;;;;4.40;1.97;;;;;;;;;;758783;182;919319;-76
2022/05/19 10:13:09;;;;;;;8.73;2.50;;;;;;;;;;759786;183;919006;-77
2022/05/19 10:15:46;;;;;;;5.70;2.28;;;;;;;;;;758617;184;919289;-77
2022/05/19 10:18:16;;;;;;;4.47;1.83;;;;;;;;;;757603;184;1021274;-76
2022/05/19 10:20:43;;;;;;;3.23;1.40;;;;;;;;;;759686;185;918180;-76
2022/05/19 10:23:14;;;;;;;3.23;2.00;;;;;;;;;;760589;183;919857;-76
2022/05/19 10:25:45;;;;;;;5.00;2.53;;;;;;;;;;762493;183;1016473;-79
2022/05/19 10:31:04;;;;;;;6.37;2.15;;;;;;;;;;753680;185;916366;-76
2022/05/19 10:33:32;;;;;;;3.57;1.70;;;;;;;;;;766883;184;917602;-77
2022/05/19 10:35:58;;;;;;;3.67;1.70;;;;;;;;;;763177;183;917611;-79
2022/05/19 10:38:30;;;;;;;4.80;1.60;;;;;;;;;;761715;184;918534;-78
2022/05/19 10:40:56;;;;;;;3.30;1.60;;;;;;;;;;763674;182;817211;-75
2022/05/19 10:43:36;;;;;;;2.60;1.53;;;;;;;;;;760104;184;919139;-77
2022/05/19 10:46:01;;;;;;;4.10;1.60;;;;;;;;;;758599;186;822934;-78
2022/05/19 10:48:34;;;;;;;4.27;1.50;;;;;;;;;;759042;183;918353;-81
2022/05/19 10:51:04;;;;;;;6.00;1.60;;;;;;;;;;759089;182;919285;-79
2022/05/19 10:53:30;;;;;;;6.80;2.03;;;;;;;;;;759349;184;919692;-79
2022/05/19 10:56:13;;;;;;;3.17;1.70;;;;;;;;;;764197;183;919714;-78
2022/05/19 10:58:55;;;;;;;4.43;1.50;;;;;;;;;;765129;182;919400;-80
2022/05/19 11:01:36;;;;;;;4.60;1.50;;;;;;;;;;755811;183;918633;-79
2022/05/19 11:04:02;;;;;;;3.27;1.40;;;;;;;;;;762683;183;926736;-80
2022/05/19 11:06:28;;;;;;;3.50;1.57;;;;;;;;;;758117;183;870477;-78
2022/05/19 11:09:13;;;;;;;8.83;1.97;;;;;;;;;;754842;183;919782;-79
2022/05/19 11:11:41;;;;;;;2.80;1.47;;;;;;;;;;756749;183;917900;-80
2022/05/19 11:14:07;;;;;;;2.57;1.33;;;;;;;;;;755867;183;914067;-79
2022/05/19 11:16:41;;;;;;;6.37;1.57;;;;;;;;;;749784;184;912968;-81
2022/05/19 11:19:06;;;;;;;4.07;1.53;;;;;;;;;;742379;187;871063;-81
2022/05/19 11:21:37;;;;;;;7.80;2.00;;;;;;;;;;757387;184;920188;-81
2022/05/19 11:24:06;;;;;;;2.90;1.60;;;;;;;;;;764126;183;816968;-78
2022/05/19 11:26:35;;;;;;;3.87;1.60;;;;;;;;;;766086;183;893958;-80
2022/05/19 11:29:01;;;;;;;4.40;2.00;;;;;;;;;;760883;183;1039500;-82
2022/05/19 11:31:27;;;;;;;4.30;1.33;;;;;;;;;;761131;183;918696;-81
2022/05/19 11:33:53;;;;;;;2.40;1.60;;;;;;;;;;763261;183;816512;-81
2022/05/19 11:36:18;;;;;;;4.97;1.60;;;;;;;;;;757659;183;918878;-81
2022/05/19 11:38:46;;;;;;;4.27;1.93;;;;;;;;;;758938;183;917377;-78
2022/05/19 11:41:10;;;;;;;2.50;1.50;;;;;;;;;;755065;183;920041;-77
2022/05/19 11:43:37;;;;;;;2.67;1.23;;;;;;;;;;763013;183;919217;-80
2022/05/19 11:46:03;;;;;;;3.47;1.60;;;;;;;;;;752389;183;919672;-82
2022/05/19 11:56:39;;;;;;;3.80;1.87;;;;;;;;;;758617;183;911104;-82
2022/05/19 11:59:05;;;;;;;3.30;1.63;;;;;;;;;;763184;183;917291;-82
2022/05/19 12:01:32;;;;;;;2.77;1.33;;;;;;;;;;756312;183;915651;-83
2022/05/19 12:04:00;;;;;;;3.70;1.63;;;;;;;;;;757338;183;918686;-83
2022/05/19 12:06:26;;;;;;;5.10;1.53;;;;;;;;;;757240;184;918268;-81
2022/05/19 12:08:55;;;;;;;3.30;1.73;;;;;;;;;;762410;184;778984;-81
2022/05/19 12:11:26;;;;;;;2.83;1.73;;;;;;;;;;756464;184;918830;-81
2022/05/19 12:13:52;;;;;;;4.87;1.90;;;;;;;;;;758017;183;902617;-83
2022/05/19 12:16:18;;;;;;;3.67;1.85;;;;;;;;;;757187;184;1024843;-78
2022/05/19 12:18:44;;;;;;;2.27;1.60;;;;;;;;;;753688;185;817326;-82
2022/05/19 12:21:15;;;;;;;4.33;1.90;;;;;;;;;;757156;183;917881;-80
2022/05/19 12:23:41;;;;;;;3.07;1.80;;;;;;;;;;757501;183;915580;-82
2022/05/19 12:26:07;;;;;;;3.30;1.85;;;;;;;;;;761641;183;919369;-81
2022/05/19 12:28:37;;;;;;;2.60;1.30;;;;;;;;;;756729;183;1021383;-76
2022/05/19 12:33:36;;;;;;;4.77;1.80;;;;;;;;;;754543;184;1018268;-78
2022/05/19 12:36:00;;;;;;;4.83;1.93;;;;;;;;;;766241;183;919205;-79
2022/05/19 12:38:29;;;;;;;2.97;1.60;;;;;;;;;;756250;183;917642;-76
2022/05/19 12:40:55;;;;;;;5.07;1.80;;;;;;;;;;760939;183;1021634;-77
2022/05/19 12:43:25;;;;;;;5.97;2.03;;;;;;;;;;761995;183;926262;-78
2022/05/19 12:45:49;;;;;;;2.90;1.37;;;;;;;;;;758087;184;1015506;-76
2022/05/19 12:48:20;;;;;;;3.70;1.80;;;;;;;;;;759725;183;886072;-76
2022/05/19 12:50:45;;;;;;;4.43;1.80;;;;;;;;;;766478;183;802062;-77
2022/05/19 12:53:13;;;;;;;5.63;1.90;;;;;;;;;;764108;183;814379;-77
2022/05/19 12:55:46;;;;;;;3.93;1.80;;;;;;;;;;758852;183;919089;-85
2022/05/19 12:58:17;;;;;;;2.80;1.80;;;;;;;;;;756740;183;1123340;-79
2022/05/19 13:00:43;;;;;;;4.60;1.60;;;;;;;;;;757317;184;1040669;-81
2022/05/19 13:03:11;;;;;;;4.00;1.60;;;;;;;;;;768147;183;630749;-74
2022/05/19 13:05:38;;;;;;;3.57;1.50;;;;;;;;;;762834;183;1022845;-76
2022/05/19 13:08:03;;;;;;;5.00;1.80;;;;;;;;;;761173;184;819321;-76
2022/05/19 13:10:35;;;;;;;3.27;1.93;;;;;;;;;;760179;183;1021603;-74
2022/05/19 13:13:05;;;;;;;4.27;1.83;;;;;;;;;;765367;183;637983;-74
2022/05/19 13:15:30;;;;;;;2.80;1.63;;;;;;;;;;766309;183;616892;-74
2022/05/19 13:17:56;;;;;;;4.30;1.40;;;;;;;;;;759385;183;1006596;-76
2022/05/19 13:20:22;;;;;;;4.10;1.50;;;;;;;;;;759335;184;918860;-74
2022/05/19 13:22:51;;;;;;;4.40;1.63;;;;;;;;;;760069;184;1022111;-77
2022/05/19 13:25:17;;;;;;;4.83;1.53;;;;;;;;;;759362;183;929391;-77
2022/05/19 13:30:25;;;;;;;7.07;1.60;;;;;;;;;;749277;183;1021722;-76
2022/05/19 13:32:49;;;;;;;8.90;1.60;;;;;;;;;;749759;187;920272;-76
2022/05/19 13:35:17;;;;;;;3.93;1.63;;;;;;;;;;760538;183;918104;-80
2022/05/19 13:37:43;;;;;;;4.77;1.47;;;;;;;;;;761988;183;712953;-81
2022/05/19 13:40:08;;;;;;;2.30;1.20;;;;;;;;;;758096;183;819375;-79
2022/05/19 13:42:34;;;;;;;5.07;1.93;;;;;;;;;;758920;183;918979;-79
2022/05/19 13:45:00;;;;;;;4.03;1.83;;;;;;;;;;760174;183;922000;-79
2022/05/19 13:47:27;;;;;;;3.67;1.53;;;;;;;;;;763011;183;915628;-76
2022/05/19 13:49:52;;;;;;;3.67;1.50;;;;;;;;;;767356;183;918146;-76
2022/05/19 13:52:17;;;;;;;4.13;1.60;;;;;;;;;;764011;183;921692;-79
2022/05/19 13:54:43;;;;;;;6.57;1.50;;;;;;;;;;756906;186;812974;-79
2022/05/19 13:57:09;;;;;;;4.90;1.90;;;;;;;;;;765086;183;916513;-73
2022/05/19 13:59:35;;;;;;;3.67;1.50;;;;;;;;;;760811;183;820665;-80
2022/05/19 14:02:06;;;;;;;5.77;1.73;;;;;;;;;;741435;187;915865;-77
2022/05/19 14:04:29;;;;;;;3.50;1.67;;;;;;;;;;755172;183;916574;-78
2022/05/19 14:06:55;;;;;;;6.70;1.60;;;;;;;;;;761849;183;812675;-78
2022/05/19 14:09:21;;;;;;;6.27;1.70;;;;;;;;;;760648;184;916636;-78
2022/05/19 14:11:47;;;;;;;4.30;1.57;;;;;;;;;;760639;183;895708;-78
2022/05/19 14:14:13;;;;;;;6.27;1.77;;;;;;;;;;762573;184;1022093;-79
2022/05/19 14:16:38;;;;;;;3.10;1.90;;;;;;;;;;756423;183;914617;-74
2022/05/19 14:19:06;;;;;;;5.47;1.40;;;;;;;;;;761021;184;805280;-79
2022/05/19 14:21:34;;;;;;;3.50;1.33;;;;;;;;;;764153;183;915395;-76
2022/05/19 14:23:58;;;;;;;5.67;1.60;;;;;;;;;;758822;184;813258;-76
2022/05/19 14:26:25;;;;;;;4.73;1.73;;;;;;;;;;752052;184;1021551;-78
2022/05/19 14:28:50;;;;;;;3.50;1.70;;;;;;;;;;758414;183;1015932;-76
2022/05/19 14:31:16;;;;;;;7.97;2.40;;;;;;;;;;761427;184;816481;-75
2022/05/19 14:33:57;;;;;;;8.90;1.80;;;;;;;;;;762838;184;832593;-78
2022/05/19 14:36:23;;;;;;;3.57;1.53;;;;;;;;;;764031;183;918028;-79
2022/05/19 14:38:49;;;;;;;5.13;1.73;;;;;;;;;;761199;184;920767;-79
2022/05/19 14:43:49;;;;;;;5.67;2.17;;;;;;;;;;755833;183;908772;-80
2022/05/19 14:46:14;;;;;;;9.67;2.03;;;;;;;;;;759619;183;703296;-74
2022/05/19 14:48:39;;;;;;;5.37;1.60;;;;;;;;;;759359;184;906865;-78
2022/05/19 14:51:13;;;;;;;2.73;1.30;;;;;;;;;;761184;183;919493;-78
2022/05/19 14:53:39;;;;;;;3.67;1.57;;;;;;;;;;758697;183;919396;-78
2022/05/19 14:56:07;;;;;;;8.00;1.70;;;;;;;;;;761806;182;633662;-80